Time;durP1;ratioP1;P1;durP2;ratioP2;P2;SDS_P1;SDS_P2;PMS_P1;PMS_P2;Temp;Humidity;BMP_temperature;BMP_pressure;BME280_temperature;BME280_humidity;BME280_pressure;Samples;Min_cycle;Max_cycle;Signal;HPM_P1;HPM_P2
2023/04/22 07:04:08;;;;;;;2.23;2.13;;;13.80;99.90;18.30;100395.00;;;;6295859;22;20169;-70
2023/04/22 07:06:34;;;;;;;2.00;2.00;;;14.20;99.90;18.10;100394.00;;;;6287025;22;20621;-70
2023/04/22 07:09:38;;;;;;;1.50;1.50;;;14.20;99.90;17.60;100387.00;;;;6340040;22;20569;-70
2023/04/22 07:12:42;;;;;;;1.40;1.40;;;13.90;99.90;17.30;100373.00;;;;6313238;22;20143;-70
2023/04/22 07:15:08;;;;;;;2.63;2.50;;;13.60;99.90;17.40;100384.00;;;;6312010;22;20161;-70
2023/04/22 07:18:14;;;;;;;2.87;2.70;;;13.70;99.90;16.70;100382.00;;;;6286788;22;20244;-70
2023/04/22 07:20:40;;;;;;;1.93;1.83;;;13.20;99.90;17.00;100391.00;;;;6289576;22;20158;-70
2023/04/22 07:23:24;;;;;;;2.17;2.13;;;13.20;99.90;16.30;100386.00;;;;6340073;22;20167;-70
2023/04/22 07:26:20;;;;;;;2.03;1.93;;;13.20;99.90;13.80;100355.00;;;;6313100;22;20149;-70
2023/04/22 07:28:48;;;;;;;1.37;1.27;;;12.30;99.90;15.40;100348.00;;;;6288718;22;20165;-70
2023/04/22 07:31:17;;;;;;;0.80;0.80;;;12.20;99.90;16.40;100381.00;;;;6340000;22;20213;-70
2023/04/22 07:33:43;;;;;;;1.40;1.40;;;12.50;99.90;16.10;100363.00;;;;6340476;22;20151;-70
2023/04/22 07:36:12;;;;;;;1.33;1.33;;;12.80;99.90;16.50;100378.00;;;;6286969;22;20305;-70
2023/04/22 07:38:38;;;;;;;1.20;1.20;;;13.00;99.90;16.00;100381.00;;;;6312306;22;20468;-70
2023/04/22 07:41:04;;;;;;;0.80;0.80;;;12.90;99.90;15.60;100326.00;;;;6340000;22;20147;-70
2023/04/22 07:43:33;;;;;;;0.93;0.93;;;12.70;99.90;16.80;100382.00;;;;6312618;22;20223;-70
2023/04/22 07:45:59;;;;;;;0.80;0.80;;;13.10;99.90;16.40;100378.00;;;;6340451;22;20146;-70
2023/04/22 07:48:25;;;;;;;1.07;1.07;;;13.10;99.90;17.50;100360.00;;;;6286821;22;20181;-70
2023/04/22 07:50:51;;;;;;;4.57;4.10;;;13.50;99.90;14.50;100325.00;;;;6312571;22;20132;-70
2023/04/22 07:53:17;;;;;;;1.27;1.00;;;13.10;99.90;14.00;100280.00;;;;6340371;22;20200;-70
2023/04/22 07:55:43;;;;;;;2.17;1.97;;;12.40;99.90;13.70;100214.00;;;;6340244;22;20488;-70
2023/04/22 07:58:29;;;;;;;2.03;1.90;;;11.80;99.90;13.10;100266.00;;;;6286920;22;20158;-70
2023/04/22 08:00:55;;;;;;;1.03;1.03;;;11.80;99.90;14.40;100272.00;;;;6290942;22;20168;-70
2023/04/22 08:03:22;;;;;;;5.03;2.17;;;11.80;99.90;15.90;100299.00;;;;6339680;22;20603;-70
2023/04/22 08:05:48;;;;;;;3.20;2.90;;;12.30;99.90;15.30;100288.00;;;;6312087;22;20155;-70
2023/04/22 08:08:17;;;;;;;4.27;2.30;;;12.70;99.90;14.10;100265.00;;;;6312546;22;20568;-70
2023/04/22 08:11:12;;;;;;;2.33;1.97;;;12.30;99.90;14.70;100262.00;;;;6287392;22;20159;-70
2023/04/22 08:13:50;;;;;;;0.40;0.40;;;12.50;99.90;15.40;100282.00;;;;6301299;22;20173;-69
2023/04/22 08:16:17;;;;;;;0.50;0.50;;;12.50;99.90;17.50;100314.00;;;;6340323;22;20155;-70
2023/04/22 08:18:43;;;;;;;1.60;1.50;;;13.30;99.90;17.50;100363.00;;;;6312810;22;20179;-70
2023/04/22 08:21:12;;;;;;;1.13;1.13;;;13.80;99.90;18.50;100376.00;;;;6339638;22;20152;-70
2023/04/22 08:23:38;;;;;;;0.70;0.70;;;14.50;99.90;17.90;100378.00;;;;6312294;22;20477;-70
2023/04/22 08:26:07;;;;;;;0.60;0.60;;;14.70;99.90;19.10;100398.00;;;;6286640;22;20171;-70
2023/04/22 08:28:34;;;;;;;3.07;2.50;;;15.40;99.90;19.60;100407.00;;;;6312167;22;20619;-70
2023/04/22 08:31:00;;;;;;;5.20;4.70;;;16.10;99.90;19.30;100403.00;;;;6286719;22;20617;-69
2023/04/22 08:33:26;;;;;;;0.67;0.67;;;16.10;99.90;19.10;100420.00;;;;6339872;22;20144;-70
2023/04/22 08:36:20;;;;;;;0.50;0.50;;;16.20;99.90;20.50;100426.00;;;;6311939;22;20147;-70
2023/04/22 08:38:46;;;;;;;0.30;0.30;;;16.40;99.90;20.10;100434.00;;;;6287681;22;20161;-70
2023/04/22 08:41:13;;;;;;;2.38;0.70;;;16.60;99.90;20.90;100457.00;;;;6339531;22;20159;-70
2023/04/22 08:43:40;;;;;;;1.83;1.73;;;17.10;99.90;20.50;100471.00;;;;6311915;22;20170;-70
2023/04/22 08:46:06;;;;;;;1.45;1.30;;;17.30;99.90;20.50;100478.00;;;;6286203;22;20155;-70
2023/04/22 08:48:32;;;;;;;2.90;2.20;;;17.20;99.90;20.10;100480.00;;;;6339784;22;20193;-70
2023/04/22 08:51:03;;;;;;;1.50;1.40;;;16.90;99.90;20.30;100474.00;;;;6312066;22;20144;-70
2023/04/22 08:53:30;;;;;;;0.40;0.40;;;16.70;99.90;21.80;100467.00;;;;6339616;22;20175;-70
2023/04/22 08:55:57;;;;;;;0.45;0.45;;;17.40;99.90;20.40;100483.00;;;;6311863;22;20599;-69
2023/04/22 08:58:35;;;;;;;0.63;0.60;;;17.20;99.90;20.50;100480.00;;;;6312079;22;20158;-70
2023/04/22 09:01:27;;;;;;;0.30;0.30;;;17.00;99.90;19.90;100485.00;;;;6312048;22;20163;-70
2023/04/22 09:03:55;;;;;;;1.90;0.63;;;16.60;99.90;19.10;100444.00;;;;6270157;22;20219;-70
2023/04/22 09:06:22;;;;;;;1.60;1.40;;;16.00;99.90;19.20;100456.00;;;;6311638;22;20149;-70
2023/04/22 09:08:49;;;;;;;0.77;0.77;;;16.00;99.90;20.30;100407.00;;;;6286295;22;20159;-70
2023/04/22 09:11:18;;;;;;;1.80;1.70;;;16.10;99.90;18.30;100470.00;;;;6312002;22;20163;-69
2023/04/22 09:13:44;;;;;;;0.53;0.47;;;15.80;99.90;18.10;100430.00;;;;6311955;22;20154;-70
2023/04/22 09:16:15;;;;;;;0.20;0.20;;;15.20;99.90;18.10;100391.00;;;;6285529;22;20158;-69
2023/04/22 09:18:44;;;;;;;0.20;0.20;;;14.90;99.90;19.90;100437.00;;;;6311826;22;20143;-70
2023/04/22 09:21:11;;;;;;;0.30;0.30;;;15.50;99.90;19.00;100463.00;;;;6312423;22;20146;-70
2023/04/22 09:24:12;;;;;;;0.30;0.30;;;15.70;99.90;19.30;100430.00;;;;6311740;22;20171;-70
2023/04/22 09:27:02;;;;;;;0.20;0.20;;;15.40;99.90;19.90;100431.00;;;;6311518;22;20165;-69
2023/04/22 09:29:31;;;;;;;0.30;0.30;;;15.70;99.90;19.60;100382.00;;;;6263445;22;20174;-69
2023/04/22 09:31:59;;;;;;;0.67;0.67;;;15.60;99.90;20.60;100400.00;;;;6311987;22;20567;-69
2023/04/22 09:34:26;;;;;;;0.30;0.30;;;16.00;99.90;20.50;100365.00;;;;6311536;22;20217;-69
2023/04/22 09:37:18;;;;;;;0.60;0.60;;;16.30;99.90;20.30;100416.00;;;;6311853;22;20254;-70
2023/04/22 09:39:43;;;;;;;0.30;0.30;;;16.10;99.90;20.60;100419.00;;;;6311434;22;20163;-70
2023/04/22 09:42:12;;;;;;;0.57;0.50;;;16.20;99.90;20.70;100439.00;;;;6285767;22;20258;-69
2023/04/22 09:45:03;;;;;;;1.67;1.57;;;16.30;99.90;18.70;100454.00;;;;6311814;22;20207;-70
2023/04/22 09:47:46;;;;;;;7.23;2.50;;;15.50;99.90;17.00;100403.00;;;;6285370;22;20282;-70
2023/04/22 09:50:11;;;;;;;1.00;1.00;;;14.40;99.90;17.00;100369.00;;;;6312733;22;20604;-69
2023/04/22 09:52:40;;;;;;;0.77;0.77;;;14.00;99.90;17.90;100393.00;;;;6311551;22;20140;-69
2023/04/22 09:55:31;;;;;;;6.20;4.40;;;14.20;99.90;15.60;100391.00;;;;6286111;22;20163;-69
2023/04/22 09:58:10;;;;;;;4.43;2.67;;;13.50;99.90;14.90;100417.00;;;;6311719;22;20142;-70
2023/04/22 10:00:46;;;;;;;0.60;0.60;;;12.80;99.90;15.20;100420.00;;;;6339425;22;20166;-69
2023/04/22 10:03:24;;;;;;;4.33;3.93;;;12.60;99.90;14.60;100378.00;;;;6338490;22;20170;-70
2023/04/22 10:05:59;;;;;;;1.23;1.23;;;12.40;99.90;14.70;100318.00;;;;6286353;22;20232;-70
2023/04/22 10:08:33;;;;;;;0.30;0.30;;;12.20;99.90;15.00;100338.00;;;;6311197;22;20143;-70
2023/04/22 10:11:04;;;;;;;0.30;0.30;;;12.20;99.90;16.40;100345.00;;;;6286164;22;20638;-70
2023/04/22 10:13:30;;;;;;;0.30;0.30;;;12.70;99.90;15.80;100340.00;;;;6311743;22;20146;-70
2023/04/22 10:15:56;;;;;;;0.40;0.40;;;12.80;99.90;15.90;100347.00;;;;6339011;22;20524;-70
2023/04/22 10:18:25;;;;;;;1.27;1.23;;;12.70;99.90;15.20;100373.00;;;;6338868;22;20146;-70
2023/04/22 10:33:27;;;;;;;0.30;0.30;;;11.20;99.90;14.20;100358.00;;;;5049917;28;20649;-69
2023/04/22 10:36:19;;;;;;;0.30;0.30;;;11.40;99.90;15.80;100338.00;;;;5012787;28;20641;-69
2023/04/22 10:38:54;;;;;;;0.33;0.33;;;12.10;99.90;15.90;100343.00;;;;5004294;28;20245;-68
2023/04/22 10:41:34;;;;;;;0.50;0.50;;;12.60;99.90;16.20;100349.00;;;;5019556;28;20191;-69
2023/04/22 10:44:07;;;;;;;0.90;0.90;;;12.80;99.90;16.40;100356.00;;;;5010919;28;20203;-69
2023/04/22 10:46:35;;;;;;;0.60;0.60;;;13.00;99.90;15.30;100351.00;;;;4996068;28;20554;-69
2023/04/22 10:49:22;;;;;;;0.40;0.40;;;12.80;99.90;15.60;100339.00;;;;5021891;28;20333;-69
2023/04/22 10:51:57;;;;;;;0.50;0.50;;;12.40;99.90;16.70;100331.00;;;;5005721;28;20652;-69
2023/04/22 10:54:26;;;;;;;0.60;0.60;;;12.90;99.90;17.20;100349.00;;;;5005834;28;20182;-69
2023/04/22 10:57:13;;;;;;;0.73;0.73;;;13.40;99.90;17.60;100360.00;;;;4997263;28;20195;-69
2023/04/22 10:59:54;;;;;;;0.93;0.93;;;13.60;99.90;17.90;100374.00;;;;5005861;28;20649;-69
2023/04/22 11:02:23;;;;;;;1.90;1.80;;;13.80;99.90;17.70;100360.00;;;;4999240;28;20196;-69
2023/04/22 11:04:53;;;;;;;2.93;1.57;;;13.90;99.90;17.70;100314.00;;;;5012293;28;20184;-69
2023/04/22 11:07:21;;;;;;;1.17;1.17;;;13.90;99.90;18.20;100339.00;;;;5012751;28;20187;-69
2023/04/22 11:10:04;;;;;;;1.27;1.27;;;14.20;99.90;17.30;100325.00;;;;5029805;28;20276;-69
2023/04/22 11:12:41;;;;;;;0.80;0.80;;;13.90;99.90;17.10;100369.00;;;;5003308;28;20205;-69
2023/04/22 11:15:16;;;;;;;0.70;0.70;;;13.60;99.90;17.20;100369.00;;;;5029539;28;20204;-69
2023/04/22 11:18:34;;;;;;;0.90;0.90;;;13.60;99.90;17.90;100364.00;;;;4990278;28;20662;-69
2023/04/22 11:21:08;;;;;;;0.70;0.70;;;13.90;99.90;17.40;100351.00;;;;5000450;28;20193;-69
2023/04/22 11:23:37;;;;;;;0.90;0.90;;;13.90;99.90;17.70;100374.00;;;;5012387;28;20202;-69
2023/04/22 11:26:10;;;;;;;1.20;1.20;;;14.00;99.90;17.80;100389.00;;;;5011119;28;20189;-69
2023/04/22 11:28:49;;;;;;;0.70;0.70;;;14.10;99.90;17.80;100390.00;;;;4995095;28;20180;-69
2023/04/22 11:31:15;;;;;;;2.10;1.97;;;14.10;99.90;17.90;100393.00;;;;5012149;28;20321;-69
2023/04/22 11:33:52;;;;;;;1.10;1.10;;;14.00;99.90;17.80;100346.00;;;;5011840;28;20266;-69
2023/04/22 11:36:30;;;;;;;5.00;4.70;;;14.00;99.90;18.00;100395.00;;;;5011745;28;20213;-69
2023/04/22 11:39:15;;;;;;;0.80;0.80;;;13.90;99.90;18.20;100384.00;;;;4995345;28;20194;-69
2023/04/22 11:41:45;;;;;;;1.63;1.63;;;14.30;99.90;18.40;100368.00;;;;4983821;28;20185;-68
2023/04/22 11:44:16;;;;;;;1.23;1.23;;;14.50;99.90;18.30;100358.00;;;;5005541;28;20193;-69
2023/04/22 11:46:43;;;;;;;1.10;1.10;;;14.40;99.90;18.30;100405.00;;;;5002044;28;20520;-69
2023/04/22 11:49:16;;;;;;;1.00;1.00;;;14.50;99.90;18.60;100399.00;;;;4998256;28;20179;-68
2023/04/22 11:52:02;;;;;;;2.37;2.17;;;14.50;99.90;18.20;100390.00;;;;4998126;28;20688;-69
2023/04/22 11:54:41;;;;;;;0.83;0.83;;;14.60;99.90;18.10;100343.00;;;;5015984;28;20234;-69
2023/04/22 11:57:25;;;;;;;0.50;0.50;;;14.40;99.90;18.60;100392.00;;;;4998292;28;20179;-69
2023/04/22 12:00:07;;;;;;;0.50;0.50;;;14.60;99.90;18.80;100349.00;;;;5015822;28;20184;-68
2023/04/22 12:02:56;;;;;;;1.33;1.33;;;14.80;99.90;18.70;100377.00;;;;4997130;28;20212;-69
2023/04/22 12:05:47;;;;;;;3.27;1.37;;;15.00;99.90;18.60;100392.00;;;;4982245;28;20188;-68
2023/04/22 12:08:34;;;;;;;2.83;1.70;;;15.00;99.90;18.70;100393.00;;;;4991535;28;20188;-68
2023/04/22 12:11:09;;;;;;;0.60;0.60;;;15.00;99.90;18.90;100403.00;;;;5010338;28;20187;-68
2023/04/22 12:13:41;;;;;;;0.60;0.60;;;15.00;99.90;18.40;100405.00;;;;4978366;28;20211;-69
2023/04/22 12:16:16;;;;;;;12.00;3.27;;;14.90;99.90;18.70;100376.00;;;;5000432;28;20275;-68
2023/04/22 12:18:57;;;;;;;0.63;0.63;;;15.00;99.90;18.40;100407.00;;;;4989574;28;20233;-68
2023/04/22 12:21:27;;;;;;;0.80;0.80;;;14.70;99.90;18.40;100406.00;;;;4983696;28;20195;-68
2023/04/22 12:23:56;;;;;;;0.60;0.60;;;14.60;99.90;18.50;100411.00;;;;4998474;28;20651;-68
2023/04/22 12:26:24;;;;;;;0.60;0.60;;;14.70;99.90;17.80;100402.00;;;;4979778;28;20184;-68
2023/04/22 12:28:51;;;;;;;0.60;0.60;;;14.60;99.90;18.00;100400.00;;;;4990323;28;20189;-68
2023/04/22 12:31:17;;;;;;;0.50;0.50;;;14.40;99.90;18.10;100423.00;;;;4985807;28;20208;-68
2023/04/22 12:33:45;;;;;;;3.67;3.17;;;14.30;99.90;17.50;100419.00;;;;5001154;28;20185;-68
2023/04/22 12:36:12;;;;;;;0.70;0.70;;;14.10;99.90;16.00;100411.00;;;;5027743;28;20192;-69
2023/04/22 12:38:46;;;;;;;0.30;0.30;;;13.50;99.90;17.10;100411.00;;;;4995621;28;20257;-68
2023/04/22 12:41:15;;;;;;;0.30;0.30;;;13.30;99.90;17.80;100419.00;;;;5000878;28;20200;-68
2023/04/22 12:43:41;;;;;;;0.93;0.93;;;13.80;99.90;18.60;100425.00;;;;5003850;28;20189;-69
2023/04/22 12:46:09;;;;;;;0.40;0.40;;;14.30;99.90;18.60;100415.00;;;;5033784;28;20271;-68
2023/04/22 12:49:02;;;;;;;0.70;0.70;;;14.60;99.90;18.10;100418.00;;;;5013733;28;20224;-69
2023/04/22 12:51:48;;;;;;;0.40;0.40;;;14.40;99.90;16.50;100424.00;;;;4996081;28;20540;-69
2023/04/22 12:54:23;;;;;;;0.40;0.40;;;14.00;99.90;16.50;100406.00;;;;5016537;28;20187;-68
2023/04/22 12:57:17;;;;;;;1.17;1.17;;;13.30;99.90;16.30;100418.00;;;;5016214;28;20189;-68
2023/04/22 12:59:46;;;;;;;6.80;4.47;;;13.00;99.90;16.20;100422.00;;;;4998371;28;20226;-69
2023/04/22 13:02:26;;;;;;;5.13;4.03;;;13.00;99.90;16.60;100438.00;;;;5015142;28;20217;-68
2023/04/22 13:05:22;;;;;;;1.80;1.37;;;13.30;99.90;15.00;100349.00;;;;5009707;28;20208;-68
2023/04/22 13:07:48;;;;;;;4.20;3.97;;;12.70;99.90;14.40;100382.00;;;;5015020;28;20189;-68
2023/04/22 13:10:19;;;;;;;0.93;0.93;;;12.20;99.90;14.20;100334.00;;;;5016110;28;20190;-68
2023/04/22 13:12:45;;;;;;;6.97;6.33;;;11.90;99.90;15.30;100370.00;;;;5012424;28;20284;-68
2023/04/22 13:15:25;;;;;;;0.70;0.70;;;12.20;99.90;14.90;100381.00;;;;5029994;28;20189;-69
2023/04/22 13:17:52;;;;;;;0.40;0.40;;;12.30;99.90;14.20;100346.00;;;;5010163;28;20191;-69
2023/04/22 13:20:18;;;;;;;2.03;1.90;;;12.00;99.90;15.70;100376.00;;;;5012141;28;20666;-68
2023/04/22 13:22:53;;;;;;;4.33;1.37;;;12.40;99.90;16.30;100385.00;;;;5016253;28;20208;-68
2023/04/22 13:25:28;;;;;;;1.47;1.37;;;12.70;99.90;17.00;100408.00;;;;4999739;28;20192;-68
2023/04/22 13:27:54;;;;;;;9.80;3.37;;;13.10;99.90;17.60;100420.00;;;;5016274;28;20540;-69
2023/04/22 13:30:22;;;;;;;0.57;0.57;;;13.50;99.90;17.60;100423.00;;;;5004566;28;20186;-69
2023/04/22 13:32:49;;;;;;;3.17;2.93;;;13.80;99.90;18.10;100416.00;;;;5010845;28;20195;-69
2023/04/22 13:35:26;;;;;;;0.73;0.73;;;14.00;99.90;18.10;100414.00;;;;5016471;28;20193;-68
2023/04/22 13:37:58;;;;;;;1.07;1.00;;;14.20;99.90;18.60;100413.00;;;;5015231;28;20640;-68
2023/04/22 13:40:26;;;;;;;1.27;1.27;;;14.50;99.90;18.60;100420.00;;;;5021879;28;20182;-68
2023/04/22 13:42:52;;;;;;;0.60;0.60;;;14.70;99.90;18.60;100438.00;;;;5016161;28;20203;-68
2023/04/22 13:45:58;;;;;;;0.97;0.97;;;14.80;99.90;18.50;100416.00;;;;5016281;28;20209;-68
2023/04/22 13:49:02;;;;;;;0.70;0.70;;;14.70;99.90;18.00;100418.00;;;;5015907;28;20264;-69
2023/04/22 13:51:29;;;;;;;0.60;0.60;;;14.50;99.90;18.30;100423.00;;;;4982976;28;20212;-68
2023/04/22 13:53:55;;;;;;;0.77;0.77;;;14.50;99.90;18.20;100420.00;;;;5028440;28;20278;-68
2023/04/22 13:56:23;;;;;;;0.60;0.60;;;14.50;99.90;18.30;100432.00;;;;5033659;28;20187;-69
2023/04/22 13:59:02;;;;;;;1.30;1.20;;;14.40;99.90;18.00;100437.00;;;;5015505;28;20274;-69
2023/04/22 14:01:30;;;;;;;1.13;1.13;;;14.40;99.90;17.30;100423.00;;;;5006284;28;20237;-69
2023/04/22 14:04:16;;;;;;;0.60;0.60;;;14.00;99.90;16.80;100428.00;;;;5010778;28;20191;-69
2023/04/22 14:06:42;;;;;;;4.03;3.03;;;13.60;99.90;17.30;100445.00;;;;5015276;28;20268;-68
2023/04/22 14:09:33;;;;;;;2.00;1.23;;;13.50;99.90;16.90;100423.00;;;;4994099;28;20216;-69
2023/04/22 14:12:25;;;;;;;0.40;0.40;;;13.60;99.90;17.00;100444.00;;;;4999085;28;20193;-69
2023/04/22 14:15:00;;;;;;;2.93;1.53;;;13.40;99.90;17.10;100439.00;;;;5020128;28;20192;-68
2023/04/22 14:17:29;;;;;;;0.70;0.70;;;13.40;99.90;17.30;100457.00;;;;5023087;28;20216;-69
2023/04/22 14:20:06;;;;;;;1.67;1.57;;;13.50;99.90;16.90;100449.00;;;;5013377;28;20279;-69
2023/04/22 14:22:45;;;;;;;0.40;0.40;;;13.40;99.90;17.20;100418.00;;;;5032763;28;20658;-68
2023/04/22 14:25:36;;;;;;;0.40;0.40;;;13.40;99.90;17.60;100460.00;;;;5015970;28;20180;-69
2023/04/22 14:28:02;;;;;;;0.40;0.40;;;13.70;99.90;17.60;100434.00;;;;5005314;28;20192;-69
2023/04/22 14:30:29;;;;;;;0.70;0.70;;;13.60;99.90;17.90;100460.00;;;;5025501;28;20187;-68
2023/04/22 14:32:57;;;;;;;0.50;0.50;;;13.80;99.90;17.90;100466.00;;;;5011565;28;20203;-69
2023/04/22 14:35:23;;;;;;;0.40;0.40;;;14.00;99.90;17.60;100464.00;;;;5005993;28;20271;-68
2023/04/22 14:37:49;;;;;;;0.40;0.40;;;14.00;99.90;17.60;100462.00;;;;5019527;28;20183;-68
2023/04/22 14:40:17;;;;;;;0.40;0.40;;;14.00;99.90;17.50;100472.00;;;;4992509;28;20200;-69
2023/04/22 14:42:43;;;;;;;0.70;0.70;;;13.90;99.90;17.30;100460.00;;;;5015508;28;20224;-69
2023/04/22 14:45:10;;;;;;;0.40;0.40;;;13.70;99.90;17.00;100462.00;;;;5015128;28;20205;-68
2023/04/22 14:47:36;;;;;;;3.63;3.37;;;13.50;99.90;15.80;100461.00;;;;5033025;28;20188;-69
2023/04/22 14:50:02;;;;;;;0.93;0.93;;;13.10;99.90;16.20;100453.00;;;;5015187;28;20230;-69
2023/04/22 14:52:30;;;;;;;0.50;0.50;;;12.90;99.90;16.60;100430.00;;;;5015084;28;20192;-68
2023/04/22 14:54:56;;;;;;;0.30;0.30;;;13.00;99.90;16.80;100485.00;;;;5014967;28;20263;-69
2023/04/22 14:58:03;;;;;;;0.40;0.40;;;13.20;99.90;16.50;100471.00;;;;5032440;28;20267;-68
2023/04/22 15:00:59;;;;;;;0.40;0.40;;;13.10;99.90;16.80;100478.00;;;;4991740;28;20186;-69
2023/04/22 15:03:26;;;;;;;0.50;0.50;;;13.10;99.90;17.40;100486.00;;;;5014305;28;20224;-68
2023/04/22 15:05:53;;;;;;;7.00;6.53;;;13.40;99.90;17.30;100485.00;;;;5014892;28;20185;-69
2023/04/22 15:08:31;;;;;;;0.30;0.30;;;13.60;99.90;17.20;100434.00;;;;5014647;28;20227;-68
2023/04/22 15:11:19;;;;;;;0.47;0.47;;;13.60;99.90;17.10;100480.00;;;;5019698;28;20256;-69
2023/04/22 15:14:08;;;;;;;1.43;1.33;;;13.50;99.90;17.10;100481.00;;;;4990419;28;20196;-68
2023/04/22 15:17:14;;;;;;;0.57;0.57;;;13.50;99.90;17.10;100484.00;;;;4988897;28;20240;-68
2023/04/22 15:20:21;;;;;;;0.40;0.40;;;13.40;99.90;17.00;100479.00;;;;4997031;28;20207;-68
2023/04/22 15:22:48;;;;;;;0.50;0.50;;;13.30;99.90;17.30;100499.00;;;;4994324;28;20654;-68
2023/04/22 15:25:20;;;;;;;5.33;4.93;;;13.70;99.90;17.30;100447.00;;;;5023630;28;20270;-69
2023/04/22 15:28:11;;;;;;;0.73;0.73;;;13.70;99.90;17.20;100487.00;;;;4993055;28;20251;-68
2023/04/22 15:31:01;;;;;;;0.30;0.30;;;13.70;99.90;18.30;100441.00;;;;5017903;28;20187;-68
2023/04/22 15:33:37;;;;;;;5.77;5.40;;;14.20;99.90;18.10;100493.00;;;;4987970;28;20202;-68
2023/04/22 15:36:28;;;;;;;7.97;6.83;;;14.50;99.90;17.30;100497.00;;;;5018127;28;20305;-69
2023/04/22 15:39:24;;;;;;;0.90;0.87;;;14.30;99.90;17.60;100491.00;;;;5012970;28;20186;-68
2023/04/22 15:45:05;;;;;;;3.57;2.87;;;14.40;99.90;18.30;100486.00;;;;5002895;28;20558;-68
2023/04/22 15:48:32;;;;;;;0.93;0.93;;;14.70;99.90;17.50;100495.00;;;;5018589;28;20195;-68
2023/04/22 15:50:58;;;;;;;0.30;0.30;;;14.10;99.90;18.20;100513.00;;;;5023289;28;20188;-68
2023/04/22 15:54:13;;;;;;;0.60;0.60;;;14.30;99.90;18.60;100511.00;;;;5020267;28;20588;-68
2023/04/22 15:57:03;;;;;;;1.63;1.53;;;14.60;99.90;18.90;100506.00;;;;5001132;28;20221;-68
2023/04/22 15:59:56;;;;;;;0.83;0.83;;;14.90;99.90;18.90;100513.00;;;;4982719;28;20555;-68
2023/04/22 16:02:53;;;;;;;0.30;0.30;;;15.10;99.90;18.70;100497.00;;;;4992975;28;20222;-68
2023/04/22 16:06:00;;;;;;;0.53;0.53;;;15.10;99.90;18.70;100506.00;;;;5013150;28;20187;-68
2023/04/22 16:08:51;;;;;;;0.70;0.70;;;15.20;99.90;18.70;100516.00;;;;5026928;28;20191;-68
2023/04/22 16:11:52;;;;;;;0.97;0.97;;;15.10;99.90;19.20;100516.00;;;;4992896;28;20199;-68
2023/04/22 16:14:38;;;;;;;4.10;3.60;;;15.40;99.90;15.60;100488.00;;;;5018547;28;20257;-68
2023/04/22 16:17:05;;;;;;;0.50;0.50;;;13.80;99.90;17.20;100514.00;;;;4999342;28;20196;-68
2023/04/22 16:19:40;;;;;;;2.83;2.63;;;13.80;99.90;17.70;100547.00;;;;5035168;28;20229;-68
2023/04/22 16:22:28;;;;;;;0.20;0.20;;;14.20;99.90;16.20;100509.00;;;;5010170;28;20200;-68
2023/04/22 16:25:15;;;;;;;11.40;7.10;;;13.40;99.90;16.90;100523.00;;;;4999573;28;20194;-68
2023/04/22 16:28:03;;;;;;;9.20;7.57;;;13.60;99.90;15.70;100507.00;;;;4995537;28;20184;-68
2023/04/22 16:30:55;;;;;;;5.77;3.97;;;13.30;99.90;16.20;100518.00;;;;5035069;28;20236;-68
2023/04/22 16:33:26;;;;;;;5.73;4.30;;;13.10;99.90;15.50;100521.00;;;;5012438;28;20183;-68
2023/04/22 16:35:52;;;;;;;15.63;9.57;;;12.90;99.90;15.60;100514.00;;;;5016343;28;20643;-68
2023/04/22 16:38:19;;;;;;;1.33;1.33;;;12.80;99.90;15.20;100479.00;;;;5017160;28;20186;-68
2023/04/22 16:40:45;;;;;;;0.27;0.27;;;12.70;99.90;16.90;100526.00;;;;5031798;28;20183;-68
2023/04/22 16:43:11;;;;;;;6.80;5.97;;;13.10;99.90;16.30;100524.00;;;;4991397;28;20242;-68
2023/04/22 16:45:37;;;;;;;2.80;2.47;;;13.30;99.90;15.30;100536.00;;;;5016840;28;20185;-68
2023/04/22 16:48:03;;;;;;;3.97;2.77;;;12.90;99.90;15.30;100520.00;;;;5017058;28;20270;-68
2023/04/22 16:50:33;;;;;;;7.23;5.53;;;12.80;99.90;14.70;100504.00;;;;5012357;28;20272;-68
2023/04/22 16:52:59;;;;;;;2.13;2.03;;;12.60;99.90;16.30;100525.00;;;;5007393;28;20191;-68
2023/04/22 16:55:25;;;;;;;11.23;7.90;;;12.90;99.90;15.70;100494.00;;;;5011362;28;20301;-68
2023/04/22 16:57:59;;;;;;;10.80;7.13;;;13.00;99.90;16.10;100522.00;;;;5014679;28;20274;-68
2023/04/22 17:00:26;;;;;;;0.90;0.90;;;13.10;99.90;15.50;100522.00;;;;5030579;28;20203;-68
2023/04/22 17:02:54;;;;;;;4.87;3.60;;;13.10;99.90;15.70;100532.00;;;;4999039;28;20214;-68
2023/04/22 17:05:20;;;;;;;0.97;0.97;;;13.00;99.90;15.50;100519.00;;;;5031277;28;20191;-68
2023/04/22 17:07:46;;;;;;;1.10;1.10;;;12.90;99.90;16.40;100532.00;;;;5009996;28;20197;-68
2023/04/22 17:10:20;;;;;;;11.50;7.23;;;13.10;99.90;15.50;100528.00;;;;5023649;28;20184;-68
2023/04/22 17:12:46;;;;;;;7.27;5.43;;;13.20;99.90;16.50;100519.00;;;;5009710;28;20240;-68
2023/04/22 17:15:13;;;;;;;1.57;0.87;;;13.10;99.90;15.50;100523.00;;;;5016426;28;20193;-68
2023/04/22 17:17:39;;;;;;;0.60;0.60;;;13.00;99.90;15.30;100518.00;;;;5012550;28;20194;-68
2023/04/22 17:20:05;;;;;;;7.23;6.27;;;12.60;99.90;15.30;100532.00;;;;5025001;28;20185;-68
2023/04/22 17:22:32;;;;;;;9.13;5.70;;;12.60;99.90;14.90;100527.00;;;;5004151;28;20209;-68
2023/04/22 17:24:58;;;;;;;0.83;0.83;;;12.50;99.90;15.00;100481.00;;;;5022848;28;20597;-68
2023/04/22 17:27:24;;;;;;;4.87;4.50;;;12.40;99.90;15.60;100541.00;;;;4996632;28;20197;-68
2023/04/22 17:29:55;;;;;;;1.57;1.47;;;12.60;99.90;15.20;100538.00;;;;5015183;28;20543;-68
2023/04/22 17:32:24;;;;;;;0.40;0.40;;;12.60;99.90;16.00;100531.00;;;;5021497;28;20256;-68
2023/04/22 17:34:50;;;;;;;4.37;2.43;;;12.60;99.90;16.40;100559.00;;;;4986498;28;20191;-68
2023/04/22 17:37:20;;;;;;;0.20;0.20;;;13.00;99.90;17.20;100545.00;;;;4978646;28;20268;-68
2023/04/22 17:40:07;;;;;;;0.20;0.20;;;13.20;99.90;16.40;100534.00;;;;4999925;28;20204;-68
2023/04/22 17:42:37;;;;;;;5.17;4.67;;;13.10;99.90;16.50;100527.00;;;;4966812;28;20207;-68
2023/04/22 17:45:07;;;;;;;0.60;0.60;;;13.20;99.90;15.80;100531.00;;;;5011851;28;20272;-68
2023/04/22 17:47:33;;;;;;;0.20;0.20;;;13.20;99.90;17.10;100535.00;;;;4979912;28;20193;-68
2023/04/22 17:50:22;;;;;;;0.20;0.20;;;13.20;99.90;17.20;100538.00;;;;4996610;28;20239;-68
2023/04/22 17:52:56;;;;;;;0.97;0.97;;;13.40;99.90;16.70;100525.00;;;;4980227;28;20195;-68
2023/04/22 17:55:22;;;;;;;2.73;2.63;;;13.30;99.90;16.70;100531.00;;;;4980349;28;20193;-68
2023/04/22 17:57:51;;;;;;;0.27;0.27;;;13.40;99.90;16.70;100528.00;;;;5013845;28;20182;-68
2023/04/22 18:00:29;;;;;;;0.20;0.20;;;13.20;99.90;16.70;100534.00;;;;5013615;28;20186;-68
2023/04/22 18:02:58;;;;;;;0.20;0.20;;;13.30;99.90;17.30;100487.00;;;;4984678;28;20218;-68
2023/04/22 18:05:27;;;;;;;0.20;0.20;;;13.40;99.90;16.60;100526.00;;;;4978052;28;20194;-68
2023/04/22 18:08:09;;;;;;;0.10;0.10;;;13.40;99.90;17.20;100520.00;;;;4996003;28;20191;-68
2023/04/22 18:10:36;;;;;;;0.20;0.20;;;13.40;99.90;16.80;100533.00;;;;4996114;28;20579;-67
2023/04/22 18:13:11;;;;;;;0.20;0.20;;;13.20;99.90;17.40;100534.00;;;;4995801;28;20590;-68
2023/04/22 18:15:46;;;;;;;0.20;0.20;;;13.50;99.90;17.80;100551.00;;;;4995907;28;20633;-68
2023/04/22 18:18:14;;;;;;;0.20;0.20;;;13.60;99.90;17.20;100563.00;;;;4984577;28;20724;-67
2023/04/22 18:20:44;;;;;;;0.20;0.20;;;13.70;99.90;17.40;100572.00;;;;4993233;28;20634;-68
2023/04/22 18:23:29;;;;;;;0.20;0.20;;;13.60;99.90;17.10;100577.00;;;;4995477;28;20265;-68
2023/04/22 18:25:57;;;;;;;0.50;0.50;;;13.50;99.90;16.60;100549.00;;;;4995845;28;20195;-67
2023/04/22 18:28:29;;;;;;;0.20;0.20;;;13.40;99.90;16.90;100568.00;;;;5008148;28;20185;-68
2023/04/22 18:30:55;;;;;;;0.30;0.30;;;13.30;99.90;16.60;100567.00;;;;5008544;28;20196;-68
2023/04/22 18:33:21;;;;;;;0.20;0.20;;;13.30;99.90;17.20;100565.00;;;;4990541;28;20564;-68
2023/04/22 18:35:50;;;;;;;0.93;0.93;;;13.40;99.90;16.40;100559.00;;;;4995819;28;20266;-67
2023/04/22 18:38:19;;;;;;;1.27;0.70;;;13.20;99.90;15.70;100565.00;;;;5013084;28;20190;-67
2023/04/22 18:40:48;;;;;;;0.20;0.20;;;12.80;99.90;15.40;100564.00;;;;4979496;28;20200;-67